createdAt,value
2017-12-08T00:01:27.486Z,12.70
2017-12-08T00:03:55.130Z,10.90
2017-12-08T00:06:23.377Z,12.80
2017-12-08T00:08:51.543Z,8.87
2017-12-08T00:11:19.193Z,14.93
2017-12-08T00:13:46.839Z,13.63
2017-12-08T00:16:14.558Z,12.13
2017-12-08T00:18:42.195Z,12.67
2017-12-08T00:21:10.328Z,5.43
2017-12-08T00:23:39.912Z,4.30
2017-12-08T00:26:05.636Z,12.97
2017-12-08T00:28:33.263Z,8.70
2017-12-08T00:31:01.484Z,16.17
2017-12-08T00:33:29.119Z,16.20
2017-12-08T00:35:56.751Z,11.13
2017-12-08T00:38:25.230Z,7.13
2017-12-08T00:40:53.582Z,13.43
2017-12-08T00:43:21.684Z,8.73
2017-12-08T00:45:49.479Z,12.50
2017-12-08T00:48:17.114Z,8.80
2017-12-08T00:50:44.742Z,7.57
2017-12-08T00:53:13.402Z,6.97
2017-12-08T00:58:22.468Z,9.50
2017-12-08T01:00:49.921Z,6.53
2017-12-08T01:03:17.561Z,5.57
2017-12-08T01:05:50.159Z,6.70
2017-12-08T01:08:17.798Z,10.10
2017-12-08T01:10:45.427Z,8.43
2017-12-08T01:13:13.547Z,8.70
2017-12-08T01:15:43.053Z,5.23
2017-12-08T01:18:11.289Z,11.07
2017-12-08T01:20:39.406Z,11.97
2017-12-08T01:23:07.041Z,10.67
2017-12-08T01:25:34.680Z,10.23
2017-12-08T01:28:02.384Z,4.80
2017-12-08T01:30:30.010Z,6.67
2017-12-08T01:32:57.816Z,6.97
2017-12-08T01:35:25.320Z,8.20
2017-12-08T01:37:52.958Z,10.63
2017-12-08T01:40:20.596Z,7.47
2017-12-08T01:42:48.309Z,5.20
2017-12-08T01:45:15.937Z,9.80
2017-12-08T01:47:44.500Z,2.23
2017-12-08T01:50:12.658Z,9.87
2017-12-08T01:52:41.246Z,10.50
2017-12-08T01:55:08.872Z,5.93
2017-12-08T01:57:36.588Z,4.93
2017-12-08T02:00:04.725Z,5.40
2017-12-08T02:02:32.370Z,4.83
2017-12-08T02:05:00.055Z,8.30
2017-12-08T02:07:29.051Z,6.00
2017-12-08T02:09:56.686Z,7.00
2017-12-08T02:12:24.397Z,6.37
2017-12-08T02:14:52.035Z,5.50
2017-12-08T02:17:19.668Z,6.47
2017-12-08T02:19:47.363Z,4.93
2017-12-08T02:24:54.197Z,3.58
2017-12-08T02:27:21.838Z,2.67
2017-12-08T02:29:49.470Z,5.97
2017-12-08T02:32:17.157Z,1.33
2017-12-08T02:34:45.292Z,7.63
2017-12-08T02:37:12.923Z,5.60
2017-12-08T02:39:40.627Z,5.63
2017-12-08T02:42:08.261Z,9.67
2017-12-08T02:44:37.043Z,3.43
2017-12-08T02:47:04.340Z,5.40
2017-12-08T02:49:31.975Z,6.47
2017-12-08T02:51:59.599Z,5.50
2017-12-08T02:54:27.701Z,5.20
2017-12-08T02:56:55.333Z,4.63
2017-12-08T02:59:22.957Z,2.33
2017-12-08T03:01:50.636Z,5.30
2017-12-08T03:04:18.256Z,5.97
2017-12-08T03:06:46.085Z,3.20
2017-12-08T03:09:13.692Z,3.43
2017-12-08T03:11:41.325Z,5.87
2017-12-08T03:14:08.949Z,2.23
2017-12-08T03:16:37.442Z,2.93
2017-12-08T03:19:05.065Z,4.03
2017-12-08T03:21:32.687Z,3.00
2017-12-08T03:24:00.381Z,1.90
2017-12-08T03:26:28.008Z,7.10
2017-12-08T03:28:57.981Z,6.27
2017-12-08T03:31:25.645Z,3.23
2017-12-08T03:33:53.268Z,5.33
2017-12-08T03:36:20.891Z,4.80
2017-12-08T03:38:48.595Z,6.13
2017-12-08T03:41:17.039Z,6.23
2017-12-08T03:43:46.135Z,2.90
2017-12-08T03:46:13.811Z,6.77
2017-12-08T03:51:20.583Z,5.47
2017-12-08T03:53:50.598Z,8.17
2017-12-08T03:56:18.225Z,2.97
2017-12-08T03:58:46.066Z,5.83
2017-12-08T04:01:13.701Z,3.40
2017-12-08T04:03:42.271Z,3.90
2017-12-08T04:06:10.010Z,2.27
2017-12-08T04:08:37.629Z,3.93
2017-12-08T04:11:05.259Z,4.63
2017-12-08T04:13:36.526Z,5.13
2017-12-08T04:16:01.356Z,4.20
2017-12-08T04:18:28.988Z,1.70
2017-12-08T04:20:56.656Z,6.33
2017-12-08T04:23:24.282Z,5.60
2017-12-08T04:25:51.900Z,6.00
2017-12-08T04:28:19.601Z,4.07
2017-12-08T04:30:47.757Z,5.73
2017-12-08T04:33:15.385Z,5.30
2017-12-08T04:35:43.054Z,1.00
2017-12-08T04:38:10.675Z,6.77
2017-12-08T04:40:38.296Z,5.17
2017-12-08T04:43:06.013Z,7.33
2017-12-08T04:45:33.630Z,5.63
2017-12-08T04:48:01.258Z,3.23
2017-12-08T04:50:28.927Z,4.50
2017-12-08T04:52:56.550Z,3.73
2017-12-08T04:55:24.171Z,3.87
2017-12-08T04:57:51.869Z,1.43
2017-12-08T05:02:58.106Z,6.50
2017-12-08T05:05:25.723Z,7.70
2017-12-08T05:07:53.350Z,5.50
2017-12-08T05:10:21.053Z,4.50
2017-12-08T05:12:48.666Z,9.07
2017-12-08T05:15:16.298Z,5.30
2017-12-08T05:17:43.976Z,6.33
2017-12-08T05:20:11.599Z,3.50
2017-12-08T05:22:39.219Z,3.63
2017-12-08T05:25:06.924Z,6.57
2017-12-08T05:32:56.930Z,9.45
2017-12-08T05:35:24.633Z,3.23
2017-12-08T05:37:52.270Z,3.97
2017-12-08T05:40:20.883Z,6.90
2017-12-08T05:42:48.563Z,3.83
2017-12-08T05:45:16.182Z,9.33
2017-12-08T05:47:43.812Z,5.93
2017-12-08T05:50:11.492Z,5.23
2017-12-08T05:52:39.112Z,5.50
2017-12-08T05:55:06.727Z,7.23
2017-12-08T05:57:34.428Z,8.23
2017-12-08T06:00:02.061Z,6.80
2017-12-08T06:02:29.682Z,5.03
2017-12-08T06:04:57.379Z,8.17
2017-12-08T06:07:24.997Z,8.97
2017-12-08T06:09:53.195Z,10.63
2017-12-08T06:12:21.800Z,17.43
2017-12-08T06:14:49.422Z,5.40
2017-12-08T06:17:17.044Z,8.83
2017-12-08T06:19:44.744Z,2.53
2017-12-08T06:24:51.681Z,5.62
2017-12-08T06:27:20.744Z,2.93
2017-12-08T06:29:48.734Z,3.97
2017-12-08T06:32:17.252Z,5.87
2017-12-08T06:34:45.610Z,8.67
2017-12-08T06:37:13.245Z,11.70
2017-12-08T06:39:40.936Z,6.27
2017-12-08T06:42:08.568Z,4.00
2017-12-08T06:44:36.204Z,7.17
2017-12-08T06:47:04.725Z,7.80
2017-12-08T06:49:33.190Z,6.97
2017-12-08T06:52:00.824Z,4.80
2017-12-08T06:54:29.009Z,15.13
2017-12-08T06:56:56.639Z,17.20
2017-12-08T06:59:24.270Z,7.23
2017-12-08T07:01:51.952Z,5.37
2017-12-08T07:04:19.579Z,8.73
2017-12-08T07:06:47.201Z,8.93
2017-12-08T07:09:15.612Z,11.97
2017-12-08T07:11:44.077Z,5.53
2017-12-08T07:14:11.700Z,2.63
2017-12-08T07:16:39.389Z,8.87
2017-12-08T07:19:07.010Z,9.50
2017-12-08T07:21:34.632Z,8.40
2017-12-08T07:24:02.353Z,7.67
2017-12-08T07:26:29.990Z,9.60
2017-12-08T07:28:57.613Z,11.53
2017-12-08T07:31:25.307Z,11.33
2017-12-08T07:33:52.935Z,9.33
2017-12-08T07:36:20.562Z,9.90
2017-12-08T07:38:48.248Z,8.27
2017-12-08T07:41:15.877Z,12.23
2017-12-08T07:43:43.503Z,9.27
2017-12-08T07:46:11.201Z,8.97
2017-12-08T07:48:38.835Z,11.20
2017-12-08T07:53:45.611Z,8.35
2017-12-08T07:56:13.237Z,12.00
2017-12-08T08:01:21.462Z,8.70
2017-12-08T08:03:49.114Z,4.20
2017-12-08T08:06:17.841Z,8.87
2017-12-08T08:08:45.958Z,9.77
2017-12-08T08:11:14.128Z,6.43
2017-12-08T08:13:41.763Z,12.47
2017-12-08T08:16:09.450Z,12.03
2017-12-08T08:18:37.097Z,12.53
2017-12-08T08:21:04.723Z,8.43
2017-12-08T08:23:32.398Z,8.23
2017-12-08T08:26:00.499Z,9.23
2017-12-08T08:28:29.095Z,6.37
2017-12-08T08:30:56.788Z,8.97
2017-12-08T08:33:24.418Z,10.57
2017-12-08T08:35:52.576Z,11.27
2017-12-08T08:38:20.254Z,11.30
2017-12-08T08:40:48.775Z,10.20
2017-12-08T08:43:16.398Z,9.70
2017-12-08T08:45:45.045Z,15.27
2017-12-08T08:48:12.680Z,16.13
2017-12-08T08:50:41.302Z,12.20
2017-12-08T08:53:08.984Z,10.27
2017-12-08T08:55:36.615Z,9.87
2017-12-08T08:58:05.697Z,8.53
2017-12-08T09:00:33.174Z,9.17
2017-12-08T09:03:00.823Z,10.47
2017-12-08T09:05:28.448Z,12.23
2017-12-08T09:07:56.987Z,11.60
2017-12-08T09:10:24.613Z,12.53
2017-12-08T09:12:52.242Z,14.03
2017-12-08T09:15:19.953Z,11.40
2017-12-08T09:17:47.579Z,11.63
2017-12-08T09:20:15.207Z,8.27
2017-12-08T09:22:42.912Z,13.20
2017-12-08T09:27:50.100Z,13.48
2017-12-08T09:30:20.833Z,12.00
2017-12-08T09:32:48.712Z,10.00
2017-12-08T09:35:16.392Z,13.00
2017-12-08T09:37:44.019Z,12.17
2017-12-08T09:40:11.654Z,12.07
2017-12-08T09:42:39.351Z,9.87
2017-12-08T09:45:06.981Z,9.27
2017-12-08T09:47:34.601Z,8.43
2017-12-08T09:50:02.289Z,9.37
2017-12-08T09:52:30.462Z,14.37
2017-12-08T09:54:58.019Z,12.23
2017-12-08T09:57:26.548Z,13.47
2017-12-08T09:59:54.167Z,6.80
2017-12-08T10:02:21.793Z,8.67
2017-12-08T10:04:49.491Z,5.50
2017-12-08T10:07:17.116Z,3.97
2017-12-08T10:09:44.734Z,4.60
2017-12-08T10:12:12.424Z,4.07
2017-12-08T10:14:40.058Z,18.50
2017-12-08T10:19:47.803Z,12.20
2017-12-08T10:22:15.415Z,13.40
2017-12-08T10:24:43.056Z,10.53
2017-12-08T10:27:10.734Z,11.17
2017-12-08T10:29:38.419Z,12.80
2017-12-08T10:32:06.010Z,8.87
2017-12-08T10:34:33.680Z,9.50
2017-12-08T10:37:01.343Z,8.93
2017-12-08T10:39:29.781Z,10.90
2017-12-08T10:41:58.336Z,13.23
2017-12-08T10:44:28.534Z,13.53
2017-12-08T10:46:57.492Z,10.17
2017-12-08T10:49:23.274Z,16.30
2017-12-08T10:51:51.486Z,11.30
2017-12-08T10:54:19.139Z,10.23
2017-12-08T10:56:46.823Z,17.33
2017-12-08T10:59:14.449Z,19.83
2017-12-08T11:01:42.089Z,11.13
2017-12-08T11:04:09.767Z,9.63
2017-12-08T11:06:37.384Z,7.43
2017-12-08T11:09:05.022Z,16.93
2017-12-08T11:11:32.720Z,17.93
2017-12-08T11:14:00.358Z,18.10
2017-12-08T11:16:27.983Z,23.13
2017-12-08T11:18:55.703Z,15.97
2017-12-08T11:21:23.364Z,11.97
2017-12-08T11:23:50.971Z,10.83
2017-12-08T11:26:19.081Z,4.70
2017-12-08T11:28:46.712Z,10.10
2017-12-08T11:31:14.359Z,14.47
2017-12-08T11:33:42.047Z,19.60
2017-12-08T11:36:09.673Z,14.63
2017-12-08T11:38:37.328Z,16.23
2017-12-08T11:41:05.019Z,17.17
2017-12-08T11:46:13.820Z,17.67
2017-12-08T11:51:20.251Z,16.40
2017-12-08T11:53:47.887Z,12.90
2017-12-08T11:56:15.515Z,12.63
2017-12-08T11:58:43.243Z,12.67
2017-12-08T12:03:42.565Z,8.57
2017-12-08T12:06:10.244Z,6.27
2017-12-08T12:08:37.975Z,6.10
2017-12-08T12:11:05.661Z,7.37
2017-12-08T12:13:33.336Z,19.97
2017-12-08T12:16:03.493Z,6.83
2017-12-08T12:18:30.815Z,11.20
2017-12-08T12:20:58.498Z,7.47
2017-12-08T12:23:26.125Z,7.43
2017-12-08T12:25:53.742Z,5.93
2017-12-08T12:28:21.439Z,9.03
2017-12-08T12:30:49.063Z,8.83
2017-12-08T12:33:16.699Z,10.30
2017-12-08T12:35:44.374Z,9.77
2017-12-08T12:38:12.005Z,11.60
2017-12-08T12:40:39.644Z,10.47
2017-12-08T12:43:07.332Z,15.20
2017-12-08T12:45:34.983Z,7.07
2017-12-08T12:48:05.503Z,12.17
2017-12-08T12:50:31.533Z,12.60
2017-12-08T12:52:59.160Z,17.70
2017-12-08T12:55:26.797Z,14.63
2017-12-08T12:57:54.943Z,12.60
2017-12-08T13:00:22.576Z,14.43
2017-12-08T13:02:50.207Z,14.20
2017-12-08T13:05:17.918Z,11.93
2017-12-08T13:07:45.548Z,12.23
2017-12-08T13:10:13.171Z,14.67
2017-12-08T13:12:40.873Z,11.37
2017-12-08T13:17:47.646Z,12.52
2017-12-08T13:20:15.335Z,10.97
2017-12-08T13:22:43.350Z,10.43
2017-12-08T13:25:11.492Z,9.80
2017-12-08T13:27:39.146Z,14.03
2017-12-08T13:30:06.772Z,12.93
2017-12-08T13:32:34.624Z,10.90
2017-12-08T13:35:02.255Z,12.90
2017-12-08T13:37:30.893Z,10.47
2017-12-08T13:39:58.543Z,17.20
2017-12-08T13:42:26.176Z,13.33
2017-12-08T13:44:53.804Z,12.27
2017-12-08T13:47:21.485Z,13.20
2017-12-08T13:49:49.116Z,8.77
2017-12-08T13:52:16.778Z,11.10
2017-12-08T13:54:56.703Z,10.50
2017-12-08T13:57:24.274Z,11.83
2017-12-08T13:59:51.883Z,11.80
2017-12-08T14:02:20.020Z,12.53
2017-12-08T14:04:47.637Z,14.37
2017-12-08T14:07:15.260Z,11.80
2017-12-08T14:09:42.935Z,11.60
2017-12-08T14:12:10.569Z,7.67
2017-12-08T14:14:38.188Z,11.13
2017-12-08T14:17:05.871Z,11.53
2017-12-08T14:19:33.498Z,11.53
2017-12-08T14:22:01.140Z,15.50
2017-12-08T14:24:28.846Z,10.57
2017-12-08T14:26:56.976Z,12.17
2017-12-08T14:29:24.604Z,8.87
2017-12-08T14:31:52.283Z,9.40
2017-12-08T14:34:19.901Z,9.97
2017-12-08T14:36:47.519Z,6.87
2017-12-08T14:41:54.292Z,13.13
2017-12-08T14:44:21.991Z,12.70
2017-12-08T14:46:49.624Z,14.00
2017-12-08T14:49:17.255Z,15.27
2017-12-08T14:51:44.965Z,12.57
2017-12-08T14:54:12.589Z,12.23
2017-12-08T14:56:40.216Z,18.57
2017-12-08T14:59:07.918Z,15.73
2017-12-08T15:01:36.379Z,15.37
2017-12-08T15:04:04.001Z,14.00
2017-12-08T15:06:31.704Z,12.13
2017-12-08T15:08:59.335Z,11.97
2017-12-08T15:11:26.973Z,19.17
2017-12-08T15:13:54.656Z,13.87
2017-12-08T15:16:22.285Z,15.10
2017-12-08T15:18:49.905Z,18.60
2017-12-08T15:21:17.640Z,15.27
2017-12-08T15:23:45.264Z,16.73
2017-12-08T15:26:12.888Z,13.77
2017-12-08T15:28:41.549Z,17.10
2017-12-08T15:31:09.171Z,15.10
2017-12-08T15:33:36.785Z,12.73
2017-12-08T15:36:06.235Z,9.23
2017-12-08T15:38:32.304Z,12.60
2017-12-08T15:41:02.432Z,9.97
2017-12-08T15:43:29.948Z,10.23
2017-12-08T15:45:58.516Z,9.03
2017-12-08T15:48:27.163Z,19.13
2017-12-08T15:53:33.968Z,23.73
2017-12-08T15:56:01.681Z,21.70
2017-12-08T15:58:29.312Z,27.93
2017-12-08T16:00:56.933Z,29.43
2017-12-08T16:03:24.628Z,32.30
2017-12-08T16:05:52.261Z,17.73
2017-12-08T16:08:20.199Z,19.83
2017-12-08T16:10:47.892Z,24.10
2017-12-08T16:13:15.521Z,23.70
2017-12-08T16:15:45.473Z,23.13
2017-12-08T16:18:13.180Z,22.23
2017-12-08T16:20:40.800Z,17.93
2017-12-08T16:23:08.437Z,17.83
2017-12-08T16:25:36.170Z,16.33
2017-12-08T16:28:04.035Z,16.07
2017-12-08T16:30:32.379Z,12.83
2017-12-08T16:33:00.062Z,27.67
2017-12-08T16:35:27.714Z,15.40
2017-12-08T16:37:55.358Z,14.37
2017-12-08T16:40:23.078Z,12.63
2017-12-08T16:42:50.727Z,21.20
2017-12-08T16:45:18.415Z,16.13
2017-12-08T16:47:46.451Z,14.43
2017-12-08T16:50:14.626Z,16.07
2017-12-08T16:52:42.870Z,16.33
2017-12-08T16:55:10.475Z,18.80
2017-12-08T16:57:38.117Z,15.80
2017-12-08T17:00:05.739Z,12.13
2017-12-08T17:05:16.193Z,13.38
2017-12-08T17:07:42.112Z,13.60
2017-12-08T17:10:09.733Z,9.80
2017-12-08T17:12:37.360Z,14.87
2017-12-08T17:15:05.130Z,10.10
2017-12-08T17:17:32.654Z,10.90
2017-12-08T17:20:00.291Z,11.00
2017-12-08T17:22:27.968Z,10.33
2017-12-08T17:24:55.587Z,11.63
2017-12-08T17:27:23.214Z,15.50
2017-12-08T17:29:50.910Z,16.43
2017-12-08T17:32:18.552Z,12.43
2017-12-08T17:34:46.223Z,12.53
2017-12-08T17:37:13.893Z,12.57
2017-12-08T17:39:41.516Z,16.37
2017-12-08T17:42:09.149Z,15.63
2017-12-08T17:44:36.851Z,14.17
2017-12-08T17:47:04.484Z,12.30
2017-12-08T17:49:32.115Z,22.20
2017-12-08T17:51:59.819Z,13.77
2017-12-08T17:54:27.484Z,12.60
2017-12-08T17:56:58.810Z,14.23
2017-12-08T17:59:27.479Z,13.33
2017-12-08T18:01:55.755Z,14.30
2017-12-08T18:04:24.059Z,12.73
2017-12-08T18:06:51.478Z,14.50
2017-12-08T18:09:19.107Z,17.40
2017-12-08T18:11:46.754Z,19.37
2017-12-08T18:14:14.445Z,23.07
2017-12-08T18:19:20.710Z,16.15
2017-12-08T18:21:48.332Z,13.60
2017-12-08T18:24:15.964Z,16.50
2017-12-08T18:26:44.104Z,20.87
2017-12-08T18:29:11.760Z,23.60
2017-12-08T18:31:39.380Z,19.30
2017-12-08T18:34:07.103Z,17.80
2017-12-08T18:36:34.734Z,19.73
2017-12-08T18:39:02.354Z,9.87
2017-12-08T18:41:30.060Z,13.23
2017-12-08T18:43:57.680Z,10.90
2017-12-08T18:46:25.300Z,14.67
2017-12-08T18:48:53.003Z,20.40
2017-12-08T18:51:20.644Z,17.97
2017-12-08T18:53:48.272Z,16.60
2017-12-08T18:56:15.967Z,15.73
2017-12-08T18:58:44.539Z,20.23
2017-12-08T19:01:12.166Z,17.27
2017-12-08T19:03:39.852Z,22.90
2017-12-08T19:06:07.486Z,21.67
2017-12-08T19:08:35.103Z,23.70
2017-12-08T19:11:02.887Z,25.50
2017-12-08T19:13:30.429Z,17.43
2017-12-08T19:15:58.055Z,15.80
2017-12-08T19:18:25.765Z,11.57
2017-12-08T19:20:53.595Z,12.03
2017-12-08T19:23:21.138Z,11.80
2017-12-08T19:25:48.842Z,10.50
2017-12-08T19:28:16.467Z,13.70
2017-12-08T19:30:44.095Z,14.13
2017-12-08T19:33:12.508Z,12.73
2017-12-08T19:35:40.227Z,11.73
2017-12-08T19:38:07.768Z,13.43
2017-12-08T19:43:14.564Z,12.82
2017-12-08T19:45:43.981Z,8.30
2017-12-08T19:48:11.605Z,6.47
2017-12-08T19:50:39.220Z,7.07
2017-12-08T19:53:06.926Z,7.70
2017-12-08T19:55:34.537Z,7.37
2017-12-08T19:58:02.199Z,7.67
2017-12-08T20:00:30.225Z,6.53
2017-12-08T20:02:58.148Z,4.40
2017-12-08T20:05:26.024Z,6.57
2017-12-08T20:07:54.164Z,6.53
2017-12-08T20:10:22.009Z,4.33
2017-12-08T20:12:49.889Z,4.53
2017-12-08T20:15:17.866Z,7.27
2017-12-08T20:17:45.809Z,8.57
2017-12-08T20:20:14.462Z,3.53
2017-12-08T20:22:42.452Z,4.83
2017-12-08T20:25:10.542Z,4.23
2017-12-08T20:27:38.021Z,4.83
2017-12-08T20:30:06.130Z,4.13
2017-12-08T20:32:34.007Z,3.00
2017-12-08T20:35:01.979Z,2.07
2017-12-08T20:37:29.943Z,4.27
2017-12-08T20:39:59.452Z,5.03
2017-12-08T20:42:27.365Z,2.53
2017-12-08T20:44:54.959Z,1.93
2017-12-08T20:47:22.576Z,1.70
2017-12-08T20:49:50.202Z,1.93
2017-12-08T20:52:17.890Z,2.60
2017-12-08T20:54:45.513Z,2.23
2017-12-08T20:57:13.395Z,1.10
2017-12-08T20:59:41.073Z,3.30
2017-12-08T21:02:08.696Z,3.47
2017-12-08T21:04:36.347Z,4.90
2017-12-08T21:07:04.046Z,3.13
2017-12-08T21:12:12.843Z,3.60
2017-12-08T21:14:40.490Z,3.60
2017-12-08T21:17:08.152Z,3.17
2017-12-08T21:19:35.872Z,2.50
2017-12-08T21:22:03.504Z,5.80
2017-12-08T21:24:31.124Z,2.93
2017-12-08T21:26:59.652Z,4.73
2017-12-08T21:29:27.281Z,3.10
2017-12-08T21:31:54.904Z,1.90
2017-12-08T21:34:22.588Z,4.40
2017-12-08T21:36:50.204Z,2.53
2017-12-08T21:39:17.834Z,1.87
2017-12-08T21:41:45.548Z,2.90
2017-12-08T21:44:13.193Z,4.30
2017-12-08T21:46:40.814Z,8.10
2017-12-08T21:49:08.499Z,3.20
2017-12-08T21:51:36.134Z,5.90
2017-12-08T21:54:03.815Z,3.23
2017-12-08T21:56:32.294Z,4.07
2017-12-08T21:58:59.921Z,3.67
2017-12-08T22:01:27.544Z,5.17
2017-12-08T22:03:55.222Z,2.80
2017-12-08T22:06:22.842Z,3.57
2017-12-08T22:08:50.465Z,2.87
2017-12-08T22:11:18.134Z,2.60
2017-12-08T22:13:45.752Z,4.30
2017-12-08T22:16:13.366Z,2.07
2017-12-08T22:18:41.155Z,2.53
2017-12-08T22:21:08.786Z,6.27
2017-12-08T22:23:36.408Z,2.87
2017-12-08T22:26:04.072Z,2.47
2017-12-08T22:28:31.696Z,2.53
2017-12-08T22:30:59.328Z,2.27
2017-12-08T22:36:06.188Z,5.65
2017-12-08T22:38:33.851Z,2.53
2017-12-08T22:41:01.472Z,3.17
2017-12-08T22:43:29.104Z,2.40
2017-12-08T22:45:56.786Z,4.03
2017-12-08T22:48:24.954Z,2.67
2017-12-08T22:50:52.167Z,3.33
2017-12-08T22:53:20.253Z,2.53
2017-12-08T22:55:47.729Z,4.07
2017-12-08T22:58:15.348Z,2.30
2017-12-08T23:00:43.024Z,3.53
2017-12-08T23:03:11.028Z,3.73
2017-12-08T23:05:39.111Z,3.70
2017-12-08T23:08:07.371Z,2.77
2017-12-08T23:10:34.984Z,2.20
2017-12-08T23:13:02.600Z,4.60
2017-12-08T23:15:30.280Z,3.77
2017-12-08T23:17:57.913Z,3.00
2017-12-08T23:20:25.533Z,3.90
2017-12-08T23:22:53.231Z,2.80
2017-12-08T23:25:21.095Z,3.53
2017-12-08T23:27:48.712Z,2.30
2017-12-08T23:30:16.387Z,3.20
2017-12-08T23:32:44.021Z,3.20
2017-12-08T23:35:11.640Z,6.27
2017-12-08T23:37:39.422Z,2.60
2017-12-08T23:40:07.305Z,1.80
2017-12-08T23:42:35.752Z,3.80
2017-12-08T23:45:03.433Z,2.80
2017-12-08T23:47:31.056Z,2.87
2017-12-08T23:49:58.676Z,2.57
2017-12-08T23:52:26.458Z,3.43
2017-12-08T23:54:54.080Z,2.27
2017-12-08T23:57:21.694Z,3.20
2017-12-08T23:59:49.481Z,5.67
